Time;durP1;ratioP1;P1;durP2;ratioP2;P2;SDS_P1;SDS_P2;PMS_P1;PMS_P2;Temp;Humidity;BMP_temperature;BMP_pressure;BME280_temperature;BME280_humidity;BME280_pressure;Samples;Min_cycle;Max_cycle;Signal;HPM_P1;HPM_P2
2023/07/31 00:00:00;;;;;;;12.50;11.40;;;;;;;24.05;100.00;100837.06;2519863;23;20612;-63
2023/07/31 00:01:01;;;;;;;12.63;11.40;;;;;;;24.03;100.00;100840.41;2519397;23;20155;-64
2023/07/31 00:02:01;;;;;;;12.43;11.30;;;;;;;23.96;100.00;100838.09;2519560;23;20507;-63
2023/07/31 00:03:02;;;;;;;12.30;11.17;;;;;;;24.02;100.00;100850.19;2519589;23;20562;-63
2023/07/31 00:04:02;;;;;;;12.60;11.43;;;;;;;23.94;100.00;100848.38;2519706;23;20193;-64
2023/07/31 00:05:03;;;;;;;13.00;11.50;;;;;;;23.89;100.00;100843.53;2519580;23;20632;-64
2023/07/31 00:06:04;;;;;;;12.87;11.67;;;;;;;23.81;100.00;100843.28;2519557;23;20250;-63
2023/07/31 00:07:06;;;;;;;12.00;11.00;;;;;;;23.85;100.00;100845.81;2519494;23;20155;-63
2023/07/31 00:08:06;;;;;;;12.00;11.00;;;;;;;23.83;100.00;100837.06;2519646;23;20213;-64
2023/07/31 00:09:07;;;;;;;12.63;11.50;;;;;;;23.87;100.00;100852.50;2520190;23;20152;-64
2023/07/31 00:10:07;;;;;;;12.53;11.43;;;;;;;23.88;100.00;100850.44;2519708;23;20283;-64
2023/07/31 00:11:08;;;;;;;12.00;10.90;;;;;;;23.83;100.00;100846.34;2519229;23;20583;-64
2023/07/31 00:12:08;;;;;;;13.50;12.10;;;;;;;23.78;100.00;100849.16;2519973;23;20844;-63
2023/07/31 00:13:08;;;;;;;12.97;11.77;;;;;;;23.72;100.00;100831.44;2519744;23;20504;-63
2023/07/31 00:14:09;;;;;;;12.50;11.40;;;;;;;23.80;100.00;100841.72;2518971;23;20475;-63
2023/07/31 00:15:10;;;;;;;12.23;11.17;;;;;;;23.77;100.00;100833.47;2519685;23;20151;-64
2023/07/31 00:16:10;;;;;;;12.07;10.97;;;;;;;23.69;100.00;100821.16;2519753;23;20229;-63
2023/07/31 00:17:11;;;;;;;11.77;10.77;;;;;;;23.37;100.00;100772.63;2519666;23;20148;-63
2023/07/31 00:18:12;;;;;;;12.03;10.93;;;;;;;23.26;100.00;100760.56;2506309;23;20224;-63
2023/07/31 00:19:12;;;;;;;12.50;11.40;;;;;;;23.48;100.00;100789.56;2507078;23;20638;-63
2023/07/31 00:20:13;;;;;;;12.10;11.07;;;;;;;23.82;100.00;100839.16;2519494;23;20151;-63
2023/07/31 00:21:13;;;;;;;12.17;10.97;;;;;;;23.50;100.00;100786.97;2519565;23;20148;-63
2023/07/31 00:22:13;;;;;;;12.23;11.03;;;;;;;23.81;100.00;100834.78;2519658;23;20281;-64
2023/07/31 00:23:14;;;;;;;11.73;10.73;;;;;;;23.49;100.00;100790.34;2519608;23;20198;-62
2023/07/31 00:24:14;;;;;;;12.80;11.70;;;;;;;23.38;100.00;100781.91;2520012;23;20183;-64
2023/07/31 00:25:15;;;;;;;13.57;12.27;;;;;;;23.70;100.00;100840.44;2519671;23;20238;-63
2023/07/31 00:26:15;;;;;;;12.87;11.63;;;;;;;23.73;100.00;100842.25;2506656;23;20171;-63
2023/07/31 00:27:16;;;;;;;12.97;11.80;;;;;;;23.71;100.00;100850.50;2506867;23;20191;-63
2023/07/31 00:28:16;;;;;;;13.07;11.97;;;;;;;23.66;100.00;100853.31;2519622;23;20179;-63
2023/07/31 00:29:16;;;;;;;13.30;12.10;;;;;;;22.89;100.00;100735.41;2519846;23;20171;-63
2023/07/31 00:30:17;;;;;;;13.20;12.00;;;;;;;23.54;100.00;100832.75;2519820;23;20151;-63
2023/07/31 00:31:17;;;;;;;13.60;12.30;;;;;;;23.33;100.00;100791.91;2519669;23;20530;-64
2023/07/31 00:32:18;;;;;;;13.30;12.20;;;;;;;23.69;100.00;100853.06;2520211;23;20155;-64
2023/07/31 00:33:18;;;;;;;13.17;11.97;;;;;;;22.97;100.00;100738.47;2519873;23;20159;-63
2023/07/31 00:34:18;;;;;;;14.40;13.10;;;;;;;23.61;100.00;100832.25;2519768;23;20152;-63
2023/07/31 00:35:19;;;;;;;13.30;12.00;;;;;;;23.72;100.00;100840.72;2519435;23;20165;-63
2023/07/31 00:36:19;;;;;;;13.30;11.97;;;;;;;23.76;100.00;100843.28;2519904;23;20233;-63
2023/07/31 00:37:20;;;;;;;13.70;12.50;;;;;;;23.38;100.00;100790.38;2519343;23;20625;-63
2023/07/31 00:38:20;;;;;;;13.53;12.43;;;;;;;23.65;100.00;100832.72;2519104;23;20536;-64
2023/07/31 00:39:21;;;;;;;14.13;12.93;;;;;;;23.10;100.00;100758.50;2519688;23;20187;-63
2023/07/31 00:40:21;;;;;;;13.43;12.27;;;;;;;23.53;100.00;100813.47;2519433;23;20166;-63
2023/07/31 00:41:21;;;;;;;13.30;12.10;;;;;;;23.68;100.00;100840.19;2519862;23;20238;-64
2023/07/31 00:42:22;;;;;;;14.27;12.80;;;;;;;23.36;100.00;100788.06;2519394;23;20190;-63
2023/07/31 00:43:22;;;;;;;13.00;11.77;;;;;;;23.73;100.00;100847.13;2519369;23;20242;-63
2023/07/31 00:44:23;;;;;;;13.73;12.53;;;;;;;23.73;100.00;100850.72;2520017;23;20186;-64
2023/07/31 00:45:23;;;;;;;13.50;12.10;;;;;;;23.26;100.00;100786.78;2520024;23;20166;-63
2023/07/31 00:46:24;;;;;;;13.40;12.30;;;;;;;23.69;100.00;100844.56;2519880;23;20218;-63
2023/07/31 00:47:25;;;;;;;13.50;12.20;;;;;;;23.68;100.00;100845.84;2507263;23;20167;-63
2023/07/31 00:48:26;;;;;;;13.57;12.37;;;;;;;23.57;100.00;100828.13;2507279;23;20604;-64
2023/07/31 00:49:27;;;;;;;13.37;12.00;;;;;;;23.70;100.00;100837.59;2520146;23;20205;-64
2023/07/31 00:50:28;;;;;;;13.93;12.70;;;;;;;23.70;100.00;100845.34;2507185;23;20156;-63
2023/07/31 00:51:29;;;;;;;13.53;12.30;;;;;;;23.01;100.00;100739.75;2494889;23;20188;-63
2023/07/31 00:52:29;;;;;;;13.77;12.57;;;;;;;23.63;100.00;100838.16;2507592;23;20275;-64
2023/07/31 00:53:30;;;;;;;13.17;12.07;;;;;;;23.67;100.00;100846.38;2519717;23;20312;-64
2023/07/31 00:54:30;;;;;;;14.47;12.60;;;;;;;23.65;100.00;100846.13;2519519;23;20222;-63
2023/07/31 00:55:31;;;;;;;13.93;12.40;;;;;;;23.61;100.00;100832.25;2506902;23;20217;-63
2023/07/31 00:56:32;;;;;;;13.77;11.97;;;;;;;23.61;100.00;100834.28;2495224;23;20228;-63
2023/07/31 00:57:34;;;;;;;13.00;11.93;;;;;;;23.61;100.00;100846.41;2506775;23;20175;-62
2023/07/31 00:58:35;;;;;;;14.37;12.90;;;;;;;23.61;100.00;100840.75;2520000;23;20740;-63
2023/07/31 00:59:35;;;;;;;13.53;12.33;;;;;;;23.53;100.00;100838.91;2520201;23;20522;-64
2023/07/31 01:00:36;;;;;;;14.00;12.70;;;;;;;23.56;100.00;100835.84;2519900;23;20167;-64
2023/07/31 01:01:36;;;;;;;13.87;12.57;;;;;;;23.51;100.00;100833.81;2520427;23;20155;-63
2023/07/31 01:02:37;;;;;;;13.93;12.73;;;;;;;23.50;100.00;100837.16;2520696;23;20166;-63
2023/07/31 01:03:39;;;;;;;14.63;13.27;;;;;;;23.50;100.00;100840.72;2520448;23;20190;-63
2023/07/31 01:04:39;;;;;;;13.87;12.73;;;;;;;23.53;100.00;100831.22;2520359;23;20194;-63
2023/07/31 01:05:47;;;;;;;14.13;12.77;;;;;;;23.52;100.00;100832.50;2507709;23;20167;-63
2023/07/31 01:07:00;;;;;;;13.20;12.10;;;;;;;23.57;100.00;100831.72;2509195;23;20151;-63
2023/07/31 01:08:36;;;;;;;13.83;12.73;;;;;;;23.57;100.00;100833.78;2520297;23;20139;-64
2023/07/31 01:09:45;;;;;;;13.93;12.63;;;;;;;23.16;100.00;100771.34;2512916;23;20452;-63
2023/07/31 01:10:50;;;;;;;13.67;12.47;;;;;;;23.55;100.00;100822.97;2520271;23;20143;-63
2023/07/31 01:11:59;;;;;;;14.10;12.73;;;;;;;23.54;100.00;100821.44;2507963;23;20559;-63
2023/07/31 01:13:00;;;;;;;13.30;12.20;;;;;;;23.35;100.00;100789.34;2509742;23;20207;-64
2023/07/31 01:14:01;;;;;;;13.40;12.20;;;;;;;23.57;100.00;100830.94;2520700;23;20186;-63
2023/07/31 01:15:09;;;;;;;14.10;12.90;;;;;;;23.60;100.00;100825.03;2520214;23;20157;-63
2023/07/31 01:16:09;;;;;;;13.80;12.47;;;;;;;23.63;100.00;100837.38;2521344;23;20162;-63
2023/07/31 01:17:10;;;;;;;13.93;12.80;;;;;;;23.62;100.00;100824.50;2521546;23;20167;-64
2023/07/31 01:18:10;;;;;;;13.30;12.20;;;;;;;23.56;100.00;100810.41;2521384;23;20618;-63
2023/07/31 01:19:13;;;;;;;13.90;12.60;;;;;;;23.53;100.00;100805.75;2521586;23;20162;-63
2023/07/31 01:20:17;;;;;;;14.20;13.00;;;;;;;23.65;100.00;100826.31;2521669;23;20147;-64
2023/07/31 01:21:35;;;;;;;14.00;12.80;;;;;;;23.62;100.00;100824.50;2521259;23;20521;-63
2023/07/31 01:23:12;;;;;;;14.40;13.00;;;;;;;23.61;100.00;100825.81;2521570;23;20586;-63
2023/07/31 01:24:15;;;;;;;14.93;13.03;;;;;;;23.57;100.00;100820.41;2521608;23;20171;-63
2023/07/31 01:25:37;;;;;;;13.83;12.53;;;;;;;23.57;100.00;100816.81;2521565;23;20210;-63
2023/07/31 01:26:40;;;;;;;14.23;12.83;;;;;;;23.45;100.00;100813.25;2508563;23;20510;-64
2023/07/31 01:27:50;;;;;;;14.23;12.87;;;;;;;23.49;100.00;100824.28;2508804;23;20210;-64
2023/07/31 01:29:05;;;;;;;14.60;13.03;;;;;;;23.54;100.00;100820.69;2521214;23;20143;-63
2023/07/31 01:30:16;;;;;;;14.60;13.30;;;;;;;23.13;100.00;100757.47;2521634;23;20139;-64
2023/07/31 01:31:22;;;;;;;14.20;12.90;;;;;;;23.48;100.00;100831.22;2520998;23;20131;-64
2023/07/31 01:32:23;;;;;;;14.87;13.47;;;;;;;23.45;100.00;100820.94;2508886;23;20198;-63
2023/07/31 01:33:24;;;;;;;14.87;13.47;;;;;;;23.09;100.00;100769.03;2509016;23;20151;-64
2023/07/31 01:34:26;;;;;;;14.57;13.17;;;;;;;23.15;100.00;100788.81;2521353;23;20151;-63
2023/07/31 01:35:26;;;;;;;14.97;13.50;;;;;;;23.45;100.00;100820.94;2521481;23;20586;-63
2023/07/31 01:36:28;;;;;;;14.07;12.67;;;;;;;23.09;100.00;100763.38;2521628;23;20499;-64
2023/07/31 01:37:32;;;;;;;15.00;13.70;;;;;;;23.45;100.00;100813.25;2508421;23;20156;-64
2023/07/31 01:38:32;;;;;;;14.90;13.50;;;;;;;23.43;100.00;100815.81;2509294;23;20163;-63
2023/07/31 01:39:33;;;;;;;14.60;13.40;;;;;;;23.46;100.00;100811.97;2521687;23;20158;-63
2023/07/31 01:40:33;;;;;;;15.37;13.90;;;;;;;23.50;100.00;100820.94;2521401;23;20190;-64
2023/07/31 01:41:34;;;;;;;15.07;13.67;;;;;;;23.53;100.00;100819.13;2521268;23;20609;-64
2023/07/31 01:42:34;;;;;;;15.43;14.03;;;;;;;23.56;100.00;100818.09;2521513;23;20609;-64
2023/07/31 01:43:34;;;;;;;14.87;13.50;;;;;;;23.53;100.00;100813.47;2521562;23;20230;-64
2023/07/31 01:44:35;;;;;;;14.37;12.87;;;;;;;23.41;100.00;100787.28;2521356;23;20179;-63
2023/07/31 01:45:35;;;;;;;14.87;13.40;;;;;;;23.59;100.00;100814.25;2521497;23;20189;-63
2023/07/31 01:46:36;;;;;;;14.13;12.93;;;;;;;23.59;100.00;100809.34;2521212;23;20178;-63
2023/07/31 01:47:36;;;;;;;15.57;14.17;;;;;;;23.62;100.00;100816.03;2521051;23;20155;-63
2023/07/31 01:48:37;;;;;;;14.60;13.13;;;;;;;23.63;100.00;100806.25;2521303;23;20186;-63
2023/07/31 01:49:37;;;;;;;14.30;12.87;;;;;;;23.62;100.00;100808.31;2521223;23;20155;-63
2023/07/31 01:50:37;;;;;;;15.80;13.70;;;;;;;23.25;100.00;100762.63;2520974;23;20617;-64
2023/07/31 01:51:38;;;;;;;14.90;12.90;;;;;;;23.56;100.00;100816.06;2521162;23;20178;-63
2023/07/31 01:52:38;;;;;;;14.83;13.47;;;;;;;23.49;100.00;100816.56;2521333;23;20182;-63
2023/07/31 01:53:39;;;;;;;14.40;13.10;;;;;;;23.55;100.00;100819.41;2508792;23;20163;-64
2023/07/31 01:54:39;;;;;;;15.00;13.50;;;;;;;23.54;100.00;100810.13;2508706;23;20175;-63
2023/07/31 01:55:40;;;;;;;14.80;13.40;;;;;;;22.90;100.00;100719.19;2521164;23;20190;-63
2023/07/31 01:56:40;;;;;;;14.70;13.30;;;;;;;23.06;100.00;100743.84;2521457;23;20179;-63
2023/07/31 01:57:40;;;;;;;13.87;12.57;;;;;;;23.60;100.00;100816.53;2521364;23;20155;-64
2023/07/31 01:58:41;;;;;;;14.27;12.87;;;;;;;23.60;100.00;100818.63;2521383;23;20645;-64
2023/07/31 01:59:41;;;;;;;13.07;11.83;;;;;;;23.58;100.00;100819.13;2521401;23;20194;-64
2023/07/31 02:00:42;;;;;;;13.50;12.30;;;;;;;23.17;100.00;100744.59;2521077;23;20621;-63
2023/07/31 02:01:42;;;;;;;14.13;12.63;;;;;;;23.04;100.00;100729.47;2521610;23;20583;-63
2023/07/31 02:02:43;;;;;;;13.40;12.10;;;;;;;23.59;100.00;100817.06;2521394;23;20234;-63
2023/07/31 02:03:43;;;;;;;13.27;12.07;;;;;;;23.58;100.00;100826.81;2521291;23;20151;-64
2023/07/31 02:04:44;;;;;;;12.43;11.33;;;;;;;23.63;100.00;100832.50;2521472;23;20155;-64
2023/07/31 02:05:48;;;;;;;13.00;11.73;;;;;;;23.47;100.00;100815.53;2521260;23;20151;-64
2023/07/31 02:06:48;;;;;;;13.67;12.37;;;;;;;23.62;100.00;100833.00;2521151;23;20151;-63
2023/07/31 02:07:49;;;;;;;12.40;11.27;;;;;;;23.50;100.00;100800.38;2521012;23;20215;-64
2023/07/31 02:08:49;;;;;;;13.03;11.87;;;;;;;23.68;100.00;100823.22;2521370;23;20500;-63
2023/07/31 02:09:50;;;;;;;12.07;10.83;;;;;;;23.66;100.00;100827.84;2521040;23;20151;-63
2023/07/31 02:10:51;;;;;;;12.40;11.27;;;;;;;23.71;100.00;100830.69;2520944;23;20162;-63
2023/07/31 02:11:52;;;;;;;12.13;10.83;;;;;;;23.46;100.00;100788.53;2508130;23;20554;-63
2023/07/31 02:12:52;;;;;;;12.23;10.90;;;;;;;23.68;100.00;100814.72;2508713;23;20227;-64
2023/07/31 02:13:52;;;;;;;11.80;10.70;;;;;;;23.70;100.00;100823.47;2521517;23;20222;-63
2023/07/31 02:14:53;;;;;;;10.60;9.70;;;;;;;23.71;100.00;100824.25;2521376;23;20159;-63
2023/07/31 02:15:53;;;;;;;10.60;9.67;;;;;;;23.68;100.00;100826.06;2521317;23;20151;-64
2023/07/31 02:16:54;;;;;;;11.27;10.03;;;;;;;23.71;100.00;100835.56;2521081;23;20179;-63
2023/07/31 02:17:54;;;;;;;10.43;9.43;;;;;;;23.68;100.00;100834.53;2520902;23;20609;-64
2023/07/31 02:18:55;;;;;;;9.70;8.90;;;;;;;23.56;100.00;100826.59;2508501;23;20254;-64
2023/07/31 02:19:55;;;;;;;10.40;9.43;;;;;;;23.52;100.00;100835.34;2508580;23;20163;-64
2023/07/31 02:20:56;;;;;;;9.97;9.00;;;;;;;23.55;100.00;100836.38;2520949;23;20183;-63
2023/07/31 02:21:56;;;;;;;9.97;9.07;;;;;;;23.64;100.00;100844.59;2521309;23;20592;-63
2023/07/31 02:22:57;;;;;;;10.73;9.83;;;;;;;23.63;100.00;100855.13;2521222;23;20155;-63
2023/07/31 02:23:57;;;;;;;9.60;8.80;;;;;;;23.12;100.00;100779.31;2521065;23;20159;-63
2023/07/31 02:24:57;;;;;;;10.17;9.00;;;;;;;23.50;100.00;100863.34;2521329;23;20151;-63
2023/07/31 02:25:58;;;;;;;10.20;9.40;;;;;;;23.24;100.00;100831.75;2521243;23;20183;-63
2023/07/31 02:26:58;;;;;;;9.60;8.70;;;;;;;23.46;100.00;100862.09;2521168;23;20148;-64
2023/07/31 02:27:59;;;;;;;9.87;8.97;;;;;;;23.41;100.00;100865.69;2520972;23;20210;-64
2023/07/31 02:28:59;;;;;;;9.47;8.63;;;;;;;23.37;100.00;100862.34;2521264;23;20171;-63
2023/07/31 02:30:00;;;;;;;9.97;8.97;;;;;;;22.85;100.00;100777.25;2521051;23;20151;-64
2023/07/31 02:31:00;;;;;;;9.40;8.60;;;;;;;23.38;100.00;100863.91;2507882;23;20163;-64
2023/07/31 02:32:00;;;;;;;9.90;9.00;;;;;;;23.39;100.00;100857.72;2508523;23;20658;-62
2023/07/31 02:33:01;;;;;;;9.33;8.43;;;;;;;23.39;100.00;100863.38;2521285;23;20155;-64
2023/07/31 02:34:01;;;;;;;8.90;8.00;;;;;;;23.44;100.00;100868.25;2521214;23;20246;-63
2023/07/31 02:35:02;;;;;;;10.57;8.80;;;;;;;23.42;100.00;100865.19;2521027;23;20218;-64
2023/07/31 02:36:02;;;;;;;9.20;8.40;;;;;;;23.40;100.00;100858.50;2521106;23;20151;-63
2023/07/31 02:37:03;;;;;;;9.90;8.90;;;;;;;23.23;100.00;100840.78;2521203;23;20151;-64
2023/07/31 02:38:03;;;;;;;9.10;8.30;;;;;;;23.12;100.00;100818.09;2521317;23;20151;-63
2023/07/31 02:39:04;;;;;;;9.30;8.10;;;;;;;23.46;100.00;100873.41;2521175;23;20210;-64
2023/07/31 02:40:05;;;;;;;9.90;8.10;;;;;;;23.46;100.00;100876.22;2521195;23;20210;-63
2023/07/31 02:41:05;;;;;;;8.33;7.53;;;;;;;23.37;100.00;100848.97;2520527;23;20171;-63
2023/07/31 02:42:06;;;;;;;8.27;7.37;;;;;;;23.50;100.00;100865.44;2520970;23;20163;-63
2023/07/31 02:43:06;;;;;;;8.10;7.37;;;;;;;23.35;100.00;100857.22;2521443;23;20151;-63
2023/07/31 02:44:07;;;;;;;9.43;7.90;;;;;;;23.55;100.00;100871.06;2521242;23;20183;-63
2023/07/31 02:45:08;;;;;;;8.13;7.33;;;;;;;23.53;100.00;100870.03;2521337;23;20186;-64
2023/07/31 02:46:08;;;;;;;8.67;7.67;;;;;;;23.58;100.00;100872.09;2521153;23;20151;-63
2023/07/31 02:47:08;;;;;;;8.80;7.90;;;;;;;23.17;100.00;100818.13;2521248;23;20183;-63
2023/07/31 02:48:09;;;;;;;8.50;7.70;;;;;;;23.54;100.00;100877.25;2520860;23;20624;-63
2023/07/31 02:49:09;;;;;;;8.10;7.40;;;;;;;23.57;100.00;100862.06;2521242;23;20147;-64
2023/07/31 02:50:10;;;;;;;8.40;7.60;;;;;;;23.56;100.00;100869.81;2521012;23;20179;-64
2023/07/31 02:51:10;;;;;;;10.37;7.43;;;;;;;23.57;100.00;100876.22;2520662;23;20620;-64
2023/07/31 02:52:11;;;;;;;8.30;7.50;;;;;;;23.22;100.00;100819.41;2520978;23;20146;-64
2023/07/31 02:53:11;;;;;;;8.17;7.30;;;;;;;23.44;100.00;100876.75;2520715;23;20273;-63
2023/07/31 02:54:12;;;;;;;7.83;7.13;;;;;;;22.96;100.00;100790.59;2521071;23;20204;-63
2023/07/31 02:55:12;;;;;;;8.10;7.30;;;;;;;23.48;100.00;100870.81;2520726;23;20155;-64
2023/07/31 02:56:12;;;;;;;7.67;6.97;;;;;;;23.43;100.00;100880.09;2520960;23;20175;-64
2023/07/31 02:57:13;;;;;;;8.53;7.50;;;;;;;23.40;100.00;100879.06;2521257;23;20172;-63
2023/07/31 02:58:13;;;;;;;9.00;7.20;;;;;;;23.37;100.00;100880.09;2520947;23;20178;-64
2023/07/31 02:59:14;;;;;;;7.73;7.03;;;;;;;23.35;100.00;100879.06;2521160;23;20280;-64
2023/07/31 03:00:14;;;;;;;7.97;7.17;;;;;;;23.31;100.00;100875.72;2520120;23;20163;-64
2023/07/31 03:01:14;;;;;;;7.83;6.83;;;;;;;23.25;100.00;100872.91;2520118;23;20514;-64
2023/07/31 03:02:15;;;;;;;9.33;7.47;;;;;;;23.32;100.00;100880.88;2521147;23;20151;-63
2023/07/31 03:03:15;;;;;;;8.27;7.20;;;;;;;23.32;100.00;100885.72;2508462;23;20231;-63
2023/07/31 03:04:16;;;;;;;8.10;7.30;;;;;;;23.33;100.00;100881.66;2508541;23;20262;-63
2023/07/31 03:05:16;;;;;;;7.77;6.97;;;;;;;23.30;100.00;100880.63;2521407;23;20153;-63
2023/07/31 03:06:16;;;;;;;8.20;7.40;;;;;;;23.23;100.00;100866.22;2521173;23;20645;-64
2023/07/31 03:07:17;;;;;;;7.77;7.00;;;;;;;23.17;100.00;100860.53;2520998;23;20482;-63
2023/07/31 03:08:18;;;;;;;8.13;7.10;;;;;;;23.03;100.00;100847.41;2520878;23;20214;-64
2023/07/31 03:09:18;;;;;;;8.03;7.33;;;;;;;23.22;100.00;100890.09;2521077;23;20158;-64
2023/07/31 03:10:19;;;;;;;8.57;7.67;;;;;;;23.21;100.00;100888.56;2520785;23;20154;-64
2023/07/31 03:11:19;;;;;;;8.20;6.70;;;;;;;;;;2520952;23;20146;-64
2023/07/31 03:12:19;;;;;;;8.13;7.33;;;;;;;23.02;100.00;100871.31;2521076;23;20175;-63
2023/07/31 03:13:20;;;;;;;8.57;6.83;;;;;;;23.22;100.00;100876.75;2521172;23;20226;-63
2023/07/31 03:14:20;;;;;;;8.73;7.23;;;;;;;23.24;100.00;100881.91;2521233;23;20637;-64
2023/07/31 03:15:21;;;;;;;8.00;7.27;;;;;;;23.05;100.00;100861.03;2521006;23;20550;-64
2023/07/31 03:16:22;;;;;;;8.17;7.00;;;;;;;23.18;100.00;100883.94;2520873;23;20158;-63
2023/07/31 03:17:22;;;;;;;7.90;7.10;;;;;;;23.19;100.00;100877.00;2520981;23;20167;-63
2023/07/31 03:18:23;;;;;;;7.53;6.83;;;;;;;23.14;100.00;100880.56;2521032;23;20151;-63
2023/07/31 03:19:23;;;;;;;8.03;7.30;;;;;;;23.19;100.00;100888.31;2521084;23;20178;-63
2023/07/31 03:20:23;;;;;;;7.83;6.80;;;;;;;22.76;100.00;100805.75;2520842;23;20495;-64
2023/07/31 03:21:24;;;;;;;10.17;6.90;;;;;;;23.21;100.00;100878.03;2520819;23;20604;-63
2023/07/31 03:22:24;;;;;;;7.70;7.00;;;;;;;23.22;100.00;100876.75;2521283;23;20503;-63
2023/07/31 03:23:25;;;;;;;8.17;7.37;;;;;;;23.23;100.00;100883.19;2520960;23;20521;-63
2023/07/31 03:24:26;;;;;;;7.40;6.60;;;;;;;;;;2520821;23;20229;-63
2023/07/31 03:25:26;;;;;;;7.40;6.60;;;;;;;23.23;100.00;100880.34;2520976;23;20151;-63
2023/07/31 03:26:26;;;;;;;6.73;6.13;;;;;;;23.14;100.00;100866.44;2521176;23;20564;-63
2023/07/31 03:27:27;;;;;;;7.93;6.13;;;;;;;22.86;100.00;100821.19;2520890;23;20178;-64
2023/07/31 03:28:27;;;;;;;5.97;5.37;;;;;;;22.64;100.00;100783.66;2520729;23;20159;-64
2023/07/31 03:29:28;;;;;;;6.57;5.90;;;;;;;23.24;100.00;100893.19;2521003;23;20151;-63
2023/07/31 03:30:28;;;;;;;5.87;5.27;;;;;;;22.41;100.00;100760.22;2520636;23;20225;-63
2023/07/31 03:31:29;;;;;;;7.47;5.63;;;;;;;23.17;100.00;100891.63;2520554;23;20158;-63
2023/07/31 03:32:29;;;;;;;6.37;5.50;;;;;;;23.15;100.00;100882.88;2520858;23;20593;-62
2023/07/31 03:33:29;;;;;;;5.83;5.23;;;;;;;23.18;100.00;100892.44;2520995;23;20155;-63
2023/07/31 03:34:31;;;;;;;5.67;4.97;;;;;;;23.14;100.00;100889.81;2521109;23;20225;-64
2023/07/31 03:35:32;;;;;;;6.70;5.33;;;;;;;23.13;100.00;100888.28;2520916;23;20229;-63
2023/07/31 03:36:32;;;;;;;7.70;4.93;;;;;;;22.34;100.00;100772.03;2520454;23;20387;-63
2023/07/31 03:37:33;;;;;;;6.60;5.13;;;;;;;23.08;100.00;100886.19;2520843;23;20511;-63
2023/07/31 03:38:34;;;;;;;8.00;5.30;;;;;;;23.14;100.00;100892.63;2520997;23;20155;-63
2023/07/31 03:39:35;;;;;;;5.90;4.60;;;;;;;23.11;100.00;100893.69;2521120;23;20482;-63
2023/07/31 03:40:35;;;;;;;5.07;4.57;;;;;;;23.08;100.00;100886.19;2520873;23;20494;-64
2023/07/31 03:41:36;;;;;;;5.17;4.67;;;;;;;23.15;100.00;100882.09;2508285;23;20227;-64
2023/07/31 03:42:36;;;;;;;5.07;4.23;;;;;;;22.72;100.00;100824.25;2508514;23;20243;-64
2023/07/31 03:43:37;;;;;;;5.10;4.60;;;;;;;23.13;100.00;100899.56;2521125;23;20272;-63
2023/07/31 03:44:37;;;;;;;5.30;4.70;;;;;;;23.11;100.00;100888.03;2521000;23;20533;-63
2023/07/31 03:45:38;;;;;;;5.97;4.40;;;;;;;22.95;100.00;100879.50;2521007;23;20190;-63
2023/07/31 03:46:38;;;;;;;5.70;4.40;;;;;;;23.11;100.00;100896.50;2521015;23;20158;-63
2023/07/31 03:47:38;;;;;;;5.10;4.60;;;;;;;23.13;100.00;100893.16;2520904;23;20155;-63
2023/07/31 03:48:39;;;;;;;5.10;4.60;;;;;;;23.17;100.00;100897.28;2520807;23;20544;-64
2023/07/31 03:49:39;;;;;;;5.73;4.20;;;;;;;23.14;100.00;100895.47;2520426;23;20202;-64
2023/07/31 03:50:40;;;;;;;5.10;4.60;;;;;;;23.22;100.00;100902.19;2519993;23;20601;-63
2023/07/31 03:51:41;;;;;;;7.10;4.40;;;;;;;23.25;100.00;100900.41;2520983;23;20161;-63
2023/07/31 03:52:41;;;;;;;5.73;4.40;;;;;;;22.99;100.00;100880.81;2520673;23;20155;-63
2023/07/31 03:53:43;;;;;;;4.60;4.20;;;;;;;23.16;100.00;100903.44;2521210;23;20199;-63
2023/07/31 03:54:44;;;;;;;5.20;4.20;;;;;;;23.15;100.00;100899.84;2521228;23;20151;-63
2023/07/31 03:55:44;;;;;;;5.47;4.80;;;;;;;23.15;100.00;100897.03;2520935;23;20155;-64
2023/07/31 03:56:45;;;;;;;5.10;4.60;;;;;;;23.17;100.00;100908.59;2520879;23;20155;-64
2023/07/31 03:57:45;;;;;;;7.10;4.43;;;;;;;23.16;100.00;100901.38;2520971;23;20680;-64
2023/07/31 03:58:46;;;;;;;5.03;4.20;;;;;;;23.14;100.00;100897.53;2521047;23;20167;-63
2023/07/31 03:59:46;;;;;;;5.43;4.50;;;;;;;23.21;100.00;100909.13;2520831;23;20183;-64
2023/07/31 04:00:47;;;;;;;5.57;4.63;;;;;;;23.22;100.00;100912.72;2520700;23;20151;-64
2023/07/31 04:01:47;;;;;;;4.90;4.40;;;;;;;22.90;100.00;100871.78;2521093;23;20163;-63
2023/07/31 04:02:48;;;;;;;4.50;4.10;;;;;;;23.23;100.00;100905.81;2521083;23;20151;-64
2023/07/31 04:03:48;;;;;;;4.77;4.23;;;;;;;23.16;100.00;100894.94;2520917;23;20590;-63
2023/07/31 04:04:48;;;;;;;5.67;4.50;;;;;;;22.91;100.00;100851.50;2521208;23;20155;-63
2023/07/31 04:05:49;;;;;;;5.30;4.77;;;;;;;23.23;100.00;100905.81;2521113;23;20231;-63
2023/07/31 04:06:49;;;;;;;5.00;4.50;;;;;;;23.18;100.00;100909.41;2520549;23;20562;-64
2023/07/31 04:07:50;;;;;;;4.60;4.20;;;;;;;23.17;100.00;100919.09;2520756;23;20500;-64
2023/07/31 04:08:50;;;;;;;5.17;4.67;;;;;;;23.22;100.00;100913.50;2520771;23;20574;-64
2023/07/31 04:09:50;;;;;;;5.37;4.60;;;;;;;23.17;100.00;100910.63;2521044;23;20155;-63
2023/07/31 04:10:51;;;;;;;6.37;4.50;;;;;;;23.26;100.00;100910.41;2520609;23;20178;-64
2023/07/31 04:11:51;;;;;;;6.03;4.40;;;;;;;23.25;100.00;100918.16;2520877;23;20158;-63
2023/07/31 04:12:51;;;;;;;5.50;4.53;;;;;;;;;;2508388;23;20236;-63
2023/07/31 04:13:52;;;;;;;6.23;4.67;;;;;;;23.23;100.00;100920.69;2508484;23;20603;-64
2023/07/31 04:14:52;;;;;;;5.43;4.80;;;;;;;22.75;100.00;100843.00;2521126;23;20163;-63
2023/07/31 04:15:54;;;;;;;6.87;4.57;;;;;;;23.23;100.00;100920.69;2521214;23;20151;-64
2023/07/31 04:16:54;;;;;;;6.47;4.57;;;;;;;23.30;100.00;100919.41;2520774;23;20484;-64
2023/07/31 04:17:54;;;;;;;6.13;4.10;;;;;;;23.25;100.00;100918.16;2520743;23;20182;-63
2023/07/31 04:18:55;;;;;;;6.13;5.10;;;;;;;23.16;100.00;100904.22;2521034;23;20536;-63
2023/07/31 04:19:55;;;;;;;5.07;4.57;;;;;;;23.28;100.00;100913.53;2520821;23;20166;-63
2023/07/31 04:20:56;;;;;;;6.70;4.37;;;;;;;23.29;100.00;100912.97;2520669;23;20272;-63
2023/07/31 04:21:56;;;;;;;5.53;4.87;;;;;;;22.92;100.00;100880.53;2521010;23;20210;-63
2023/07/31 04:22:57;;;;;;;4.83;4.33;;;;;;;22.67;100.00;100834.25;2521091;23;20178;-64
2023/07/31 04:23:58;;;;;;;5.77;4.20;;;;;;;23.25;100.00;100923.00;2520930;23;20163;-64
2023/07/31 04:24:58;;;;;;;4.90;4.30;;;;;;;23.18;100.00;100918.63;2521050;23;20263;-63
2023/07/31 04:25:59;;;;;;;4.77;4.27;;;;;;;22.63;100.00;100842.19;2521076;23;20379;-63
2023/07/31 04:26:59;;;;;;;5.00;4.20;;;;;;;22.82;100.00;100863.03;2521024;23;20151;-63
2023/07/31 04:27:59;;;;;;;5.10;4.40;;;;;;;23.13;100.00;100916.53;2520731;23;20178;-64
2023/07/31 04:29:00;;;;;;;5.37;4.30;;;;;;;23.05;100.00;100904.22;2520565;23;20182;-63
2023/07/31 04:30:00;;;;;;;5.40;4.37;;;;;;;23.17;100.00;100908.59;2520911;23;20154;-63
2023/07/31 04:31:01;;;;;;;5.13;4.63;;;;;;;23.14;100.00;100918.06;2520781;23;20230;-64
2023/07/31 04:32:01;;;;;;;5.50;4.30;;;;;;;23.10;100.00;100911.13;2520781;23;20178;-63
2023/07/31 04:33:02;;;;;;;5.20;4.70;;;;;;;23.06;100.00;100908.56;2520939;23;20190;-63
2023/07/31 04:34:03;;;;;;;8.70;4.70;;;;;;;23.00;100.00;100909.84;2520950;23;20152;-63
2023/07/31 04:35:04;;;;;;;6.77;4.67;;;;;;;22.84;100.00;100885.16;2521023;23;20197;-64
2023/07/31 04:36:04;;;;;;;5.97;4.97;;;;;;;22.42;100.00;100823.13;2521593;23;21207;-63
2023/07/31 04:37:05;;;;;;;6.57;4.67;;;;;;;22.59;100.00;100846.56;2521664;23;20193;-63
2023/07/31 04:38:05;;;;;;;6.53;4.40;;;;;;;22.71;100.00;100862.25;2521646;23;20503;-63
2023/07/31 04:39:06;;;;;;;4.80;4.40;;;;;;;23.03;100.00;100908.81;2521829;23;20208;-64